createdAt,value
2018-05-27T00:00:11.085Z,19.05
2018-05-27T00:10:11.052Z,18.72
2018-05-27T00:20:11.096Z,18.59
2018-05-27T00:30:10.978Z,18.28
2018-05-27T00:40:11.021Z,18.21
2018-05-27T00:50:10.979Z,18.12
2018-05-27T01:00:10.955Z,17.99
2018-05-27T01:10:10.918Z,17.85
2018-05-27T01:20:11.207Z,17.59
2018-05-27T01:30:11.788Z,17.55
2018-05-27T01:40:11.079Z,17.54
2018-05-27T01:50:11.093Z,17.53
2018-05-27T02:00:11.018Z,17.26
2018-05-27T02:10:11.017Z,17.14
2018-05-27T02:20:10.960Z,17.18
2018-05-27T02:30:11.011Z,17.03
2018-05-27T02:40:10.974Z,16.89
2018-05-27T02:50:11.733Z,16.68
2018-05-27T03:00:11.014Z,16.71
2018-05-27T03:10:10.925Z,16.63
2018-05-27T03:20:11.011Z,16.73
2018-05-27T03:30:11.009Z,16.9
2018-05-27T03:40:10.944Z,16.71
2018-05-27T03:50:11.014Z,16.65
2018-05-27T04:00:10.948Z,16.83
2018-05-27T04:10:10.954Z,16.74
2018-05-27T04:20:11.009Z,16.85
2018-05-27T04:30:11.000Z,16.93
2018-05-27T04:40:11.032Z,17.17
2018-05-27T04:50:10.990Z,17.66
2018-05-27T05:00:10.934Z,18.13
2018-05-27T05:10:11.011Z,18.52
2018-05-27T05:20:10.989Z,18.94
2018-05-27T05:30:11.045Z,19.35
2018-05-27T05:40:12.599Z,19.76
2018-05-27T05:50:10.964Z,20.23
2018-05-27T06:00:11.024Z,20.74
2018-05-27T06:10:10.972Z,21.9
2018-05-27T06:20:10.968Z,26.18
2018-05-27T06:30:10.980Z,28.51
2018-05-27T06:40:10.908Z,29
2018-05-27T06:50:10.988Z,31.87
2018-05-27T07:00:10.956Z,33.85
2018-05-27T07:10:11.038Z,35.01
2018-05-27T07:20:10.988Z,35.36
2018-05-27T07:30:10.956Z,34.96
2018-05-27T07:40:10.984Z,36.6
2018-05-27T07:50:11.000Z,35.73
2018-05-27T08:00:11.041Z,37.66
2018-05-27T08:10:10.983Z,38.27
2018-05-27T08:20:11.065Z,36.14
2018-05-27T08:30:11.050Z,37.02
2018-05-27T08:40:11.231Z,35.92
2018-05-27T08:50:11.201Z,38.3
2018-05-27T09:00:11.022Z,37.67
2018-05-27T09:10:11.130Z,32.15
2018-05-27T09:20:11.511Z,29.28
2018-05-27T09:30:11.020Z,28.69
2018-05-27T09:40:11.088Z,28.56
2018-05-27T09:50:11.866Z,28.28
2018-05-27T10:00:11.833Z,28.56
2018-05-27T10:10:11.081Z,28.28
2018-05-27T10:20:11.300Z,28.58
2018-05-27T10:30:11.059Z,28.72
2018-05-27T10:40:11.037Z,28.56
2018-05-27T10:50:11.092Z,28.6
2018-05-27T11:00:11.144Z,28.6
2018-05-27T11:10:11.015Z,28.48
2018-05-27T11:20:11.087Z,28.69
2018-05-27T11:30:11.085Z,28.58
2018-05-27T11:40:11.205Z,28.31
2018-05-27T11:50:11.065Z,28.22
2018-05-27T12:00:12.612Z,28.77
2018-05-27T12:10:41.918Z,28.91
2018-05-27T12:20:50.610Z,29.99
2018-05-27T12:30:47.870Z,29.93
2018-05-27T12:40:46.869Z,29.65
2018-05-27T12:50:17.774Z,29.68
2018-05-27T13:00:16.921Z,30.21
2018-05-27T13:10:40.038Z,31.26
2018-05-27T13:20:21.068Z,31.67
2018-05-27T13:30:11.068Z,31.3
2018-05-27T13:40:11.181Z,30.27
2018-05-27T13:50:11.083Z,29.75
2018-05-27T14:00:11.254Z,29.23
2018-05-27T14:10:11.404Z,28.78
2018-05-27T14:20:11.097Z,28.65
2018-05-27T14:30:11.116Z,28.72
2018-05-27T14:40:12.213Z,28.63
2018-05-27T14:50:11.166Z,28.82
2018-05-27T15:00:11.216Z,28.91
2018-05-27T15:10:11.138Z,28.66
2018-05-27T15:20:11.216Z,27.02
2018-05-27T15:30:11.058Z,25.79
2018-05-27T15:40:11.382Z,25.22
2018-05-27T15:50:11.627Z,24.8
2018-05-27T16:00:11.235Z,24.42
2018-05-27T16:10:11.971Z,24.2
2018-05-27T16:20:11.236Z,24.05
2018-05-27T16:30:11.174Z,24.07
2018-05-27T16:40:11.177Z,23.82
2018-05-27T16:50:11.313Z,23.49
2018-05-27T17:00:11.421Z,23.55
2018-05-27T17:10:11.174Z,23.52
2018-05-27T17:20:11.370Z,23.47
2018-05-27T17:30:11.231Z,23.62
2018-05-27T17:40:11.262Z,23.71
2018-05-27T17:50:11.965Z,23.75
2018-05-27T18:00:11.244Z,23.87
2018-05-27T18:10:11.223Z,23.98
2018-05-27T18:20:11.171Z,23.92
2018-05-27T18:30:11.248Z,23.87
2018-05-27T18:40:11.117Z,23.5
2018-05-27T18:50:11.235Z,23.4
2018-05-27T19:00:11.156Z,23.09
2018-05-27T19:10:11.272Z,22.99
2018-05-27T19:20:11.460Z,22.82
2018-05-27T19:30:11.255Z,22.71
2018-05-27T19:40:11.485Z,22.67
2018-05-27T19:50:11.306Z,22.46
2018-05-27T20:00:11.305Z,22.29
2018-05-27T20:10:11.256Z,22.14
2018-05-27T20:20:11.689Z,22.06
2018-05-27T20:30:11.201Z,21.94
2018-05-27T20:40:11.766Z,21.74
2018-05-27T20:50:11.462Z,21.06
2018-05-27T21:00:11.264Z,20.77
2018-05-27T21:10:11.292Z,20.61
2018-05-27T21:20:12.175Z,20.3
2018-05-27T21:30:12.584Z,20.06
2018-05-27T21:40:13.216Z,19.8
2018-05-27T21:50:11.165Z,19.65
2018-05-27T22:00:17.700Z,19.25
2018-05-27T22:10:18.515Z,18.99
2018-05-27T22:20:11.373Z,19.06
2018-05-27T22:30:11.152Z,19.13
2018-05-27T22:40:11.239Z,19.11
2018-05-27T22:50:11.155Z,18.91
2018-05-27T23:00:11.361Z,18.76
2018-05-27T23:10:11.215Z,18.62
2018-05-27T23:20:11.263Z,18.44
2018-05-27T23:30:11.226Z,18.46
2018-05-27T23:40:11.243Z,18.43
2018-05-27T23:50:11.211Z,18.34
